createdAt,value
2023-01-25T00:19:53.944Z,1052
2023-01-25T00:39:54.067Z,1050
2023-01-25T00:59:54.111Z,1051
2023-01-25T01:19:54.182Z,1051
2023-01-25T01:39:54.246Z,1050
2023-01-25T01:59:54.322Z,1052
2023-01-25T02:19:54.451Z,1051
2023-01-25T02:39:54.523Z,1050
2023-01-25T02:59:54.740Z,1051
2023-01-25T03:19:54.644Z,1051
2023-01-25T03:39:54.715Z,1049
2023-01-25T03:59:54.780Z,1047
2023-01-25T04:19:54.884Z,1050
2023-01-25T04:59:55.010Z,1049
2023-01-25T05:39:55.155Z,1049
2023-01-25T05:59:55.446Z,1050
2023-01-25T06:19:55.319Z,1052
2023-01-25T06:39:55.394Z,1049
2023-01-25T06:59:55.449Z,1051
2023-01-25T07:19:55.534Z,1053
2023-01-25T07:39:55.634Z,1047
2023-01-25T07:59:55.703Z,1051
2023-01-25T08:19:55.744Z,1052
2023-01-25T08:59:55.165Z,1051
2023-01-25T09:19:56.012Z,1050
2023-01-25T09:39:56.049Z,1051
2023-01-25T09:59:56.123Z,1043
2023-01-25T10:19:56.187Z,1035
2023-01-25T10:39:56.272Z,1041
2023-01-25T10:59:56.349Z,1047
2023-01-25T11:19:56.417Z,1049
2023-01-25T11:39:56.498Z,1050
2023-01-25T11:59:56.586Z,1046
2023-01-25T12:19:56.677Z,1044
2023-01-25T12:39:56.744Z,1047
2023-01-25T13:19:56.873Z,1046
2023-01-25T14:19:57.113Z,1049
2023-01-25T14:39:57.185Z,1050
2023-01-25T14:59:57.250Z,1050
2023-01-25T15:20:05.325Z,1049
2023-01-25T15:39:57.439Z,1049
2023-01-25T15:59:57.479Z,1047
2023-01-25T16:19:57.560Z,1049
2023-01-25T16:40:05.606Z,1046
2023-01-25T16:59:57.777Z,1045
2023-01-25T17:19:57.785Z,1048
2023-01-25T17:39:57.869Z,1049
2023-01-25T17:59:58.011Z,1049
2023-01-25T18:39:58.128Z,1047
2023-01-25T18:59:59.768Z,1045
2023-01-25T19:19:58.205Z,1049
2023-01-25T19:39:58.278Z,1047
2023-01-25T19:59:58.391Z,1047
2023-01-25T20:39:58.536Z,1047
2023-01-25T20:59:58.626Z,1047
2023-01-25T21:19:58.670Z,1047
2023-01-25T21:39:58.759Z,1045
2023-01-25T21:59:58.826Z,1046
2023-01-25T22:20:06.905Z,1046
2023-01-25T22:39:58.991Z,1046
2023-01-25T22:59:59.056Z,1047
2023-01-25T23:19:59.182Z,1045
2023-01-25T23:39:59.235Z,1044
2023-01-25T23:59:59.313Z,1043
